Terminal Aerodrome Forecast
Issued by NWS

Home | Current Version | Previous Version | Text Only | Print | Product List | Glossary On
Versions: 1 2 3 4 5 6 7 8 9 10 11 12 13 14 15 16 17 18 19 20 21 22 23 24 25 26 27
000
FTUS44 KOUN 281528 AAA
TAFPNC
TAF AMD
KPNC 281528Z 2815/0112 12008KT 1/4SM SN FZFG OVC010
     FM281900 13008KT 5SM -SN BR OVC018
     FM010100 12008KT 3SM -FZDZ BR OVC007
     FM010800 12005KT 1SM -FZDZ BR OVC005=

USA.gov is the U.S. government's official web portal to all federal, state and local government web resources and services.